sensor_id;sensor_type;location;lat;lon;timestamp;P1;durP1;ratioP1;P2;durP2;ratioP2
22240;SDS011;11289;52.524;13.694;2022-12-31T00:00:00;4.45;;;1.20;;
22240;SDS011;11289;52.524;13.694;2022-12-31T00:02:29;2.72;;;1.40;;
22240;SDS011;11289;52.524;13.694;2022-12-31T00:04:55;1.42;;;1.20;;
22240;SDS011;11289;52.524;13.694;2022-12-31T00:07:20;2.70;;;1.10;;
22240;SDS011;11289;52.524;13.694;2022-12-31T00:09:45;2.92;;;1.15;;
22240;SDS011;11289;52.524;13.694;2022-12-31T00:12:11;4.50;;;1.30;;
22240;SDS011;11289;52.524;13.694;2022-12-31T00:14:36;2.20;;;1.25;;
22240;SDS011;11289;52.524;13.694;2022-12-31T00:17:02;1.70;;;1.23;;
22240;SDS011;11289;52.524;13.694;2022-12-31T00:19:27;2.05;;;1.55;;
22240;SDS011;11289;52.524;13.694;2022-12-31T00:21:52;1.73;;;1.20;;
22240;SDS011;11289;52.524;13.694;2022-12-31T00:24:18;4.32;;;1.23;;
22240;SDS011;11289;52.524;13.694;2022-12-31T00:26:43;1.65;;;1.10;;
22240;SDS011;11289;52.524;13.694;2022-12-31T00:29:08;1.48;;;1.15;;
22240;SDS011;11289;52.524;13.694;2022-12-31T00:31:35;1.45;;;1.15;;
22240;SDS011;11289;52.524;13.694;2022-12-31T00:34:02;1.83;;;1.15;;
22240;SDS011;11289;52.524;13.694;2022-12-31T00:36:29;1.83;;;1.05;;
22240;SDS011;11289;52.524;13.694;2022-12-31T00:38:56;1.77;;;1.00;;
22240;SDS011;11289;52.524;13.694;2022-12-31T00:41:23;1.77;;;1.05;;
22240;SDS011;11289;52.524;13.694;2022-12-31T00:43:49;1.30;;;1.00;;
22240;SDS011;11289;52.524;13.694;2022-12-31T00:46:15;1.65;;;1.02;;
22240;SDS011;11289;52.524;13.694;2022-12-31T00:48:42;1.98;;;1.00;;
22240;SDS011;11289;52.524;13.694;2022-12-31T00:51:08;1.73;;;1.00;;
22240;SDS011;11289;52.524;13.694;2022-12-31T00:53:36;2.25;;;1.05;;
22240;SDS011;11289;52.524;13.694;2022-12-31T00:56:03;1.67;;;1.10;;
22240;SDS011;11289;52.524;13.694;2022-12-31T00:58:30;2.15;;;1.10;;
22240;SDS011;11289;52.524;13.694;2022-12-31T01:00:57;2.22;;;0.88;;
22240;SDS011;11289;52.524;13.694;2022-12-31T01:03:23;1.10;;;0.88;;
22240;SDS011;11289;52.524;13.694;2022-12-31T01:05:57;1.60;;;0.90;;
22240;SDS011;11289;52.524;13.694;2022-12-31T01:10:54;1.23;;;0.98;;
22240;SDS011;11289;52.524;13.694;2022-12-31T01:13:47;1.00;;;0.90;;
22240;SDS011;11289;52.524;13.694;2022-12-31T01:16:19;2.22;;;1.00;;
22240;SDS011;11289;52.524;13.694;2022-12-31T01:18:46;1.63;;;1.10;;
22240;SDS011;11289;52.524;13.694;2022-12-31T01:21:12;2.05;;;1.10;;
22240;SDS011;11289;52.524;13.694;2022-12-31T01:23:38;2.08;;;1.00;;
22240;SDS011;11289;52.524;13.694;2022-12-31T01:26:04;1.73;;;1.00;;
22240;SDS011;11289;52.524;13.694;2022-12-31T01:28:34;1.52;;;1.10;;
22240;SDS011;11289;52.524;13.694;2022-12-31T01:31:13;1.27;;;0.88;;
22240;SDS011;11289;52.524;13.694;2022-12-31T01:33:43;1.00;;;0.75;;
22240;SDS011;11289;52.524;13.694;2022-12-31T01:36:16;1.07;;;0.87;;
22240;SDS011;11289;52.524;13.694;2022-12-31T01:38:46;2.03;;;0.90;;
22240;SDS011;11289;52.524;13.694;2022-12-31T01:41:13;1.25;;;0.77;;
22240;SDS011;11289;52.524;13.694;2022-12-31T01:43:48;1.42;;;1.00;;
22240;SDS011;11289;52.524;13.694;2022-12-31T01:52:06;1.25;;;0.95;;
22240;SDS011;11289;52.524;13.694;2022-12-31T01:54:51;1.15;;;0.93;;
22240;SDS011;11289;52.524;13.694;2022-12-31T01:57:25;1.73;;;0.80;;
22240;SDS011;11289;52.524;13.694;2022-12-31T01:59:58;1.10;;;0.85;;
22240;SDS011;11289;52.524;13.694;2022-12-31T02:02:28;0.98;;;0.80;;
22240;SDS011;11289;52.524;13.694;2022-12-31T02:04:58;2.17;;;0.90;;
22240;SDS011;11289;52.524;13.694;2022-12-31T02:07:46;2.63;;;0.85;;
22240;SDS011;11289;52.524;13.694;2022-12-31T02:10:16;0.73;;;0.70;;
22240;SDS011;11289;52.524;13.694;2022-12-31T02:12:42;1.38;;;0.90;;
22240;SDS011;11289;52.524;13.694;2022-12-31T02:15:08;0.80;;;0.80;;
22240;SDS011;11289;52.524;13.694;2022-12-31T02:32:04;0.85;;;0.70;;
22240;SDS011;11289;52.524;13.694;2022-12-31T02:34:37;0.98;;;0.82;;
22240;SDS011;11289;52.524;13.694;2022-12-31T02:37:09;1.05;;;0.90;;
22240;SDS011;11289;52.524;13.694;2022-12-31T02:39:38;0.75;;;0.75;;
22240;SDS011;11289;52.524;13.694;2022-12-31T02:42:06;1.95;;;0.80;;
22240;SDS011;11289;52.524;13.694;2022-12-31T02:44:35;0.75;;;0.68;;
22240;SDS011;11289;52.524;13.694;2022-12-31T03:00:17;0.50;;;0.50;;
22240;SDS011;11289;52.524;13.694;2022-12-31T03:03:01;1.33;;;0.70;;
22240;SDS011;11289;52.524;13.694;2022-12-31T03:05:31;0.70;;;0.70;;
22240;SDS011;11289;52.524;13.694;2022-12-31T03:07:58;1.73;;;0.65;;
22240;SDS011;11289;52.524;13.694;2022-12-31T03:10:24;0.68;;;0.60;;
22240;SDS011;11289;52.524;13.694;2022-12-31T03:12:50;1.00;;;0.70;;
22240;SDS011;11289;52.524;13.694;2022-12-31T03:15:17;1.40;;;0.60;;
22240;SDS011;11289;52.524;13.694;2022-12-31T03:20:20;0.60;;;0.60;;
22240;SDS011;11289;52.524;13.694;2022-12-31T03:23:08;2.33;;;0.70;;
22240;SDS011;11289;52.524;13.694;2022-12-31T03:25:35;0.60;;;0.60;;
22240;SDS011;11289;52.524;13.694;2022-12-31T03:28:10;0.80;;;0.77;;
22240;SDS011;11289;52.524;13.694;2022-12-31T03:30:40;0.50;;;0.50;;
22240;SDS011;11289;52.524;13.694;2022-12-31T03:33:08;0.50;;;0.50;;
22240;SDS011;11289;52.524;13.694;2022-12-31T03:35:35;0.60;;;0.60;;
22240;SDS011;11289;52.524;13.694;2022-12-31T03:38:02;1.02;;;0.70;;
22240;SDS011;11289;52.524;13.694;2022-12-31T03:40:29;0.55;;;0.55;;
22240;SDS011;11289;52.524;13.694;2022-12-31T03:42:55;2.05;;;0.60;;
22240;SDS011;11289;52.524;13.694;2022-12-31T03:45:21;0.85;;;0.60;;
22240;SDS011;11289;52.524;13.694;2022-12-31T03:47:47;0.50;;;0.50;;
22240;SDS011;11289;52.524;13.694;2022-12-31T03:50:15;0.75;;;0.73;;
22240;SDS011;11289;52.524;13.694;2022-12-31T03:52:42;0.60;;;0.60;;
22240;SDS011;11289;52.524;13.694;2022-12-31T03:55:08;0.60;;;0.60;;
22240;SDS011;11289;52.524;13.694;2022-12-31T03:57:34;0.88;;;0.60;;
22240;SDS011;11289;52.524;13.694;2022-12-31T04:00:00;1.75;;;0.60;;
22240;SDS011;11289;52.524;13.694;2022-12-31T04:02:26;0.43;;;0.40;;
22240;SDS011;11289;52.524;13.694;2022-12-31T04:04:51;0.52;;;0.52;;
22240;SDS011;11289;52.524;13.694;2022-12-31T04:07:17;1.00;;;0.77;;
22240;SDS011;11289;52.524;13.694;2022-12-31T04:09:42;1.00;;;0.57;;
22240;SDS011;11289;52.524;13.694;2022-12-31T04:12:07;0.70;;;0.70;;
22240;SDS011;11289;52.524;13.694;2022-12-31T04:14:33;0.43;;;0.43;;
22240;SDS011;11289;52.524;13.694;2022-12-31T04:16:58;0.77;;;0.70;;
22240;SDS011;11289;52.524;13.694;2022-12-31T04:19:24;0.50;;;0.50;;
22240;SDS011;11289;52.524;13.694;2022-12-31T04:21:49;0.60;;;0.60;;
22240;SDS011;11289;52.524;13.694;2022-12-31T04:24:15;0.80;;;0.70;;
22240;SDS011;11289;52.524;13.694;2022-12-31T04:26:40;1.00;;;0.60;;
22240;SDS011;11289;52.524;13.694;2022-12-31T04:29:07;0.55;;;0.55;;
22240;SDS011;11289;52.524;13.694;2022-12-31T04:31:33;0.60;;;0.57;;
22240;SDS011;11289;52.524;13.694;2022-12-31T04:33:59;0.80;;;0.70;;
22240;SDS011;11289;52.524;13.694;2022-12-31T04:36:24;0.50;;;0.50;;
22240;SDS011;11289;52.524;13.694;2022-12-31T04:38:49;0.57;;;0.52;;
22240;SDS011;11289;52.524;13.694;2022-12-31T04:41:17;0.50;;;0.50;;
22240;SDS011;11289;52.524;13.694;2022-12-31T04:43:54;0.60;;;0.60;;
22240;SDS011;11289;52.524;13.694;2022-12-31T04:46:22;0.50;;;0.50;;
22240;SDS011;11289;52.524;13.694;2022-12-31T04:48:49;0.50;;;0.50;;
22240;SDS011;11289;52.524;13.694;2022-12-31T04:51:15;0.50;;;0.50;;
22240;SDS011;11289;52.524;13.694;2022-12-31T04:53:40;0.40;;;0.40;;
22240;SDS011;11289;52.524;13.694;2022-12-31T04:56:07;0.98;;;0.60;;
22240;SDS011;11289;52.524;13.694;2022-12-31T04:58:33;1.48;;;0.60;;
22240;SDS011;11289;52.524;13.694;2022-12-31T05:00:59;1.02;;;0.93;;
22240;SDS011;11289;52.524;13.694;2022-12-31T05:03:25;0.52;;;0.52;;
22240;SDS011;11289;52.524;13.694;2022-12-31T05:05:51;0.52;;;0.52;;
22240;SDS011;11289;52.524;13.694;2022-12-31T05:08:18;0.63;;;0.57;;
22240;SDS011;11289;52.524;13.694;2022-12-31T05:10:44;0.60;;;0.50;;
22240;SDS011;11289;52.524;13.694;2022-12-31T05:13:11;0.68;;;0.68;;
22240;SDS011;11289;52.524;13.694;2022-12-31T05:15:38;0.50;;;0.50;;
22240;SDS011;11289;52.524;13.694;2022-12-31T05:18:04;0.50;;;0.50;;
22240;SDS011;11289;52.524;13.694;2022-12-31T05:20:29;0.60;;;0.60;;
22240;SDS011;11289;52.524;13.694;2022-12-31T05:22:55;0.40;;;0.40;;
22240;SDS011;11289;52.524;13.694;2022-12-31T05:25:20;0.63;;;0.60;;
22240;SDS011;11289;52.524;13.694;2022-12-31T05:27:45;2.00;;;0.60;;
22240;SDS011;11289;52.524;13.694;2022-12-31T05:30:11;1.55;;;0.80;;
22240;SDS011;11289;52.524;13.694;2022-12-31T05:32:37;0.60;;;0.60;;
22240;SDS011;11289;52.524;13.694;2022-12-31T05:35:02;0.60;;;0.60;;
22240;SDS011;11289;52.524;13.694;2022-12-31T05:37:29;0.50;;;0.50;;
22240;SDS011;11289;52.524;13.694;2022-12-31T05:39:55;0.52;;;0.52;;
22240;SDS011;11289;52.524;13.694;2022-12-31T05:42:21;2.22;;;0.75;;
22240;SDS011;11289;52.524;13.694;2022-12-31T05:44:46;0.50;;;0.50;;
22240;SDS011;11289;52.524;13.694;2022-12-31T05:47:12;0.50;;;0.50;;
22240;SDS011;11289;52.524;13.694;2022-12-31T05:49:38;1.40;;;0.50;;
22240;SDS011;11289;52.524;13.694;2022-12-31T05:52:03;0.60;;;0.60;;
22240;SDS011;11289;52.524;13.694;2022-12-31T05:54:29;0.52;;;0.52;;
22240;SDS011;11289;52.524;13.694;2022-12-31T05:56:54;0.55;;;0.55;;
22240;SDS011;11289;52.524;13.694;2022-12-31T05:59:20;0.50;;;0.50;;
22240;SDS011;11289;52.524;13.694;2022-12-31T06:01:45;0.50;;;0.50;;
22240;SDS011;11289;52.524;13.694;2022-12-31T06:04:11;0.65;;;0.60;;
22240;SDS011;11289;52.524;13.694;2022-12-31T06:06:36;0.60;;;0.60;;
22240;SDS011;11289;52.524;13.694;2022-12-31T06:09:02;3.20;;;0.70;;
22240;SDS011;11289;52.524;13.694;2022-12-31T06:11:27;0.90;;;0.80;;
22240;SDS011;11289;52.524;13.694;2022-12-31T06:13:53;0.85;;;0.60;;
22240;SDS011;11289;52.524;13.694;2022-12-31T06:16:18;0.70;;;0.60;;
22240;SDS011;11289;52.524;13.694;2022-12-31T06:18:45;0.52;;;0.50;;
22240;SDS011;11289;52.524;13.694;2022-12-31T06:21:11;0.60;;;0.60;;
22240;SDS011;11289;52.524;13.694;2022-12-31T06:23:38;0.88;;;0.70;;
22240;SDS011;11289;52.524;13.694;2022-12-31T06:26:04;0.80;;;0.80;;
22240;SDS011;11289;52.524;13.694;2022-12-31T06:28:31;0.75;;;0.60;;
22240;SDS011;11289;52.524;13.694;2022-12-31T06:31:00;0.50;;;0.50;;
22240;SDS011;11289;52.524;13.694;2022-12-31T06:33:27;0.80;;;0.80;;
22240;SDS011;11289;52.524;13.694;2022-12-31T06:35:56;0.70;;;0.70;;
22240;SDS011;11289;52.524;13.694;2022-12-31T06:38:24;0.63;;;0.63;;
22240;SDS011;11289;52.524;13.694;2022-12-31T06:40:50;1.75;;;0.63;;
22240;SDS011;11289;52.524;13.694;2022-12-31T06:43:15;0.68;;;0.68;;
22240;SDS011;11289;52.524;13.694;2022-12-31T06:45:41;0.85;;;0.65;;
22240;SDS011;11289;52.524;13.694;2022-12-31T06:48:06;0.70;;;0.60;;
22240;SDS011;11289;52.524;13.694;2022-12-31T06:50:32;0.70;;;0.65;;
22240;SDS011;11289;52.524;13.694;2022-12-31T06:52:58;0.50;;;0.50;;
22240;SDS011;11289;52.524;13.694;2022-12-31T06:55:23;1.05;;;0.70;;
22240;SDS011;11289;52.524;13.694;2022-12-31T06:57:49;0.80;;;0.80;;
22240;SDS011;11289;52.524;13.694;2022-12-31T07:00:15;0.68;;;0.63;;
22240;SDS011;11289;52.524;13.694;2022-12-31T07:21:45;1.30;;;0.60;;
22240;SDS011;11289;52.524;13.694;2022-12-31T07:24:14;0.60;;;0.60;;
22240;SDS011;11289;52.524;13.694;2022-12-31T07:29:07;4.35;;;2.88;;
22240;SDS011;11289;52.524;13.694;2022-12-31T07:34:54;0.90;;;0.77;;
22240;SDS011;11289;52.524;13.694;2022-12-31T07:37:46;1.20;;;0.70;;
22240;SDS011;11289;52.524;13.694;2022-12-31T07:40:43;1.05;;;0.80;;
22240;SDS011;11289;52.524;13.694;2022-12-31T07:43:33;1.00;;;0.88;;
22240;SDS011;11289;52.524;13.694;2022-12-31T07:49:00;1.23;;;0.60;;
22240;SDS011;11289;52.524;13.694;2022-12-31T07:51:26;0.63;;;0.63;;
22240;SDS011;11289;52.524;13.694;2022-12-31T07:53:52;0.63;;;0.60;;
22240;SDS011;11289;52.524;13.694;2022-12-31T07:56:19;0.77;;;0.60;;
22240;SDS011;11289;52.524;13.694;2022-12-31T07:58:55;0.70;;;0.70;;
22240;SDS011;11289;52.524;13.694;2022-12-31T08:09:55;0.50;;;0.50;;
22240;SDS011;11289;52.524;13.694;2022-12-31T08:12:35;1.27;;;0.70;;
22240;SDS011;11289;52.524;13.694;2022-12-31T08:15:10;0.52;;;0.50;;
22240;SDS011;11289;52.524;13.694;2022-12-31T08:17:41;2.65;;;0.63;;
22240;SDS011;11289;52.524;13.694;2022-12-31T08:20:10;0.60;;;0.52;;
22240;SDS011;11289;52.524;13.694;2022-12-31T08:31:35;1.55;;;0.80;;
22240;SDS011;11289;52.524;13.694;2022-12-31T08:37:05;0.90;;;0.70;;
22240;SDS011;11289;52.524;13.694;2022-12-31T08:39:41;2.05;;;0.50;;
22240;SDS011;11289;52.524;13.694;2022-12-31T08:45:18;0.52;;;0.52;;
22240;SDS011;11289;52.524;13.694;2022-12-31T08:50:42;0.73;;;0.50;;
22240;SDS011;11289;52.524;13.694;2022-12-31T08:53:07;0.43;;;0.43;;
22240;SDS011;11289;52.524;13.694;2022-12-31T08:55:33;1.55;;;0.50;;
22240;SDS011;11289;52.524;13.694;2022-12-31T09:00:44;2.20;;;1.10;;
22240;SDS011;11289;52.524;13.694;2022-12-31T09:19:17;0.60;;;0.60;;
22240;SDS011;11289;52.524;13.694;2022-12-31T09:21:43;0.68;;;0.60;;
22240;SDS011;11289;52.524;13.694;2022-12-31T09:24:12;0.93;;;0.65;;
22240;SDS011;11289;52.524;13.694;2022-12-31T09:29:51;0.57;;;0.28;;
22240;SDS011;11289;52.524;13.694;2022-12-31T09:32:30;0.70;;;0.60;;
22240;SDS011;11289;52.524;13.694;2022-12-31T09:38:05;2.10;;;0.80;;
22240;SDS011;11289;52.524;13.694;2022-12-31T09:54:30;0.75;;;0.50;;
22240;SDS011;11289;52.524;13.694;2022-12-31T10:02:51;0.75;;;0.70;;
22240;SDS011;11289;52.524;13.694;2022-12-31T10:12:03;0.60;;;0.60;;
22240;SDS011;11289;52.524;13.694;2022-12-31T10:14:46;2.80;;;1.35;;
22240;SDS011;11289;52.524;13.694;2022-12-31T10:17:43;2.22;;;0.80;;
22240;SDS011;11289;52.524;13.694;2022-12-31T10:25:57;1.38;;;0.70;;
22240;SDS011;11289;52.524;13.694;2022-12-31T10:31:34;2.53;;;0.75;;
22240;SDS011;11289;52.524;13.694;2022-12-31T10:50:46;1.55;;;0.73;;
22240;SDS011;11289;52.524;13.694;2022-12-31T10:56:07;0.98;;;0.73;;
22240;SDS011;11289;52.524;13.694;2022-12-31T11:07:27;1.50;;;0.68;;
22240;SDS011;11289;52.524;13.694;2022-12-31T11:10:36;0.75;;;0.57;;
22240;SDS011;11289;52.524;13.694;2022-12-31T11:13:34;0.75;;;0.65;;
22240;SDS011;11289;52.524;13.694;2022-12-31T11:24:21;0.70;;;0.52;;
22240;SDS011;11289;52.524;13.694;2022-12-31T11:30:31;0.88;;;0.60;;
22240;SDS011;11289;52.524;13.694;2022-12-31T11:50:24;1.27;;;0.77;;
22240;SDS011;11289;52.524;13.694;2022-12-31T11:53:01;1.00;;;0.85;;
22240;SDS011;11289;52.524;13.694;2022-12-31T11:58:28;2.03;;;0.65;;
22240;SDS011;11289;52.524;13.694;2022-12-31T12:01:06;0.70;;;0.70;;
22240;SDS011;11289;52.524;13.694;2022-12-31T12:03:38;0.90;;;0.60;;
22240;SDS011;11289;52.524;13.694;2022-12-31T12:06:11;2.30;;;0.70;;
22240;SDS011;11289;52.524;13.694;2022-12-31T12:08:38;2.28;;;0.80;;
22240;SDS011;11289;52.524;13.694;2022-12-31T12:11:07;0.80;;;0.80;;
22240;SDS011;11289;52.524;13.694;2022-12-31T12:13:43;3.25;;;0.75;;
22240;SDS011;11289;52.524;13.694;2022-12-31T12:16:08;2.72;;;0.80;;
22240;SDS011;11289;52.524;13.694;2022-12-31T12:21:12;2.60;;;0.65;;
22240;SDS011;11289;52.524;13.694;2022-12-31T12:23:52;4.78;;;1.02;;
22240;SDS011;11289;52.524;13.694;2022-12-31T12:26:31;2.30;;;0.95;;
22240;SDS011;11289;52.524;13.694;2022-12-31T12:29:22;3.80;;;1.08;;
22240;SDS011;11289;52.524;13.694;2022-12-31T12:34:27;1.02;;;0.70;;
22240;SDS011;11289;52.524;13.694;2022-12-31T12:36:54;0.85;;;0.63;;
22240;SDS011;11289;52.524;13.694;2022-12-31T12:39:23;2.25;;;0.98;;
22240;SDS011;11289;52.524;13.694;2022-12-31T12:42:03;0.82;;;0.80;;
22240;SDS011;11289;52.524;13.694;2022-12-31T12:44:31;2.20;;;0.65;;
22240;SDS011;11289;52.524;13.694;2022-12-31T12:46:59;1.95;;;0.80;;
22240;SDS011;11289;52.524;13.694;2022-12-31T12:49:31;3.13;;;0.80;;
22240;SDS011;11289;52.524;13.694;2022-12-31T13:03:22;0.82;;;0.63;;
22240;SDS011;11289;52.524;13.694;2022-12-31T13:05:57;0.80;;;0.80;;
22240;SDS011;11289;52.524;13.694;2022-12-31T13:22:13;1.48;;;0.90;;
22240;SDS011;11289;52.524;13.694;2022-12-31T13:27:34;1.83;;;1.02;;
22240;SDS011;11289;52.524;13.694;2022-12-31T13:30:08;3.35;;;1.20;;
22240;SDS011;11289;52.524;13.694;2022-12-31T13:32:41;1.75;;;0.30;;
22240;SDS011;11289;52.524;13.694;2022-12-31T13:38:05;2.55;;;0.75;;
22240;SDS011;11289;52.524;13.694;2022-12-31T13:49:04;0.88;;;0.68;;
22240;SDS011;11289;52.524;13.694;2022-12-31T13:57:00;3.15;;;0.82;;
22240;SDS011;11289;52.524;13.694;2022-12-31T13:59:37;2.17;;;0.85;;
22240;SDS011;11289;52.524;13.694;2022-12-31T14:04:52;1.27;;;0.75;;
22240;SDS011;11289;52.524;13.694;2022-12-31T14:07:36;2.58;;;0.60;;
22240;SDS011;11289;52.524;13.694;2022-12-31T14:21:14;0.95;;;0.80;;
22240;SDS011;11289;52.524;13.694;2022-12-31T14:24:05;6.63;;;3.45;;
22240;SDS011;11289;52.524;13.694;2022-12-31T14:26:44;2.47;;;1.33;;
22240;SDS011;11289;52.524;13.694;2022-12-31T14:29:47;2.25;;;0.80;;
22240;SDS011;11289;52.524;13.694;2022-12-31T14:37:55;2.28;;;1.15;;
22240;SDS011;11289;52.524;13.694;2022-12-31T14:54:41;1.60;;;0.80;;
22240;SDS011;11289;52.524;13.694;2022-12-31T14:57:10;1.30;;;1.20;;
22240;SDS011;11289;52.524;13.694;2022-12-31T14:59:56;3.00;;;1.20;;
22240;SDS011;11289;52.524;13.694;2022-12-31T15:02:24;3.97;;;1.75;;
22240;SDS011;11289;52.524;13.694;2022-12-31T15:05:31;2.80;;;1.55;;
22240;SDS011;11289;52.524;13.694;2022-12-31T15:13:26;2.22;;;1.52;;
22240;SDS011;11289;52.524;13.694;2022-12-31T15:24:28;3.97;;;2.35;;
22240;SDS011;11289;52.524;13.694;2022-12-31T15:26:58;3.72;;;1.73;;
22240;SDS011;11289;52.524;13.694;2022-12-31T15:29:34;3.80;;;1.13;;
22240;SDS011;11289;52.524;13.694;2022-12-31T15:32:11;1.60;;;0.88;;
22240;SDS011;11289;52.524;13.694;2022-12-31T15:34:43;1.98;;;0.85;;
22240;SDS011;11289;52.524;13.694;2022-12-31T15:40:04;2.40;;;1.73;;
22240;SDS011;11289;52.524;13.694;2022-12-31T15:42:41;1.42;;;1.00;;
22240;SDS011;11289;52.524;13.694;2022-12-31T15:45:12;1.20;;;0.95;;
22240;SDS011;11289;52.524;13.694;2022-12-31T15:47:47;1.52;;;1.00;;
22240;SDS011;11289;52.524;13.694;2022-12-31T15:50:19;1.73;;;1.23;;
22240;SDS011;11289;52.524;13.694;2022-12-31T15:52:53;3.47;;;1.50;;
22240;SDS011;11289;52.524;13.694;2022-12-31T15:58:10;2.65;;;1.63;;
22240;SDS011;11289;52.524;13.694;2022-12-31T16:03:28;4.85;;;3.50;;
22240;SDS011;11289;52.524;13.694;2022-12-31T16:06:11;2.10;;;1.58;;
22240;SDS011;11289;52.524;13.694;2022-12-31T16:11:07;1.98;;;1.48;;
22240;SDS011;11289;52.524;13.694;2022-12-31T16:13:34;3.72;;;1.40;;
22240;SDS011;11289;52.524;13.694;2022-12-31T16:16:04;2.83;;;1.50;;
22240;SDS011;11289;52.524;13.694;2022-12-31T16:18:35;3.13;;;1.95;;
22240;SDS011;11289;52.524;13.694;2022-12-31T16:21:05;1.90;;;1.50;;
22240;SDS011;11289;52.524;13.694;2022-12-31T16:23:50;9.03;;;3.97;;
22240;SDS011;11289;52.524;13.694;2022-12-31T16:26:23;4.32;;;1.90;;
22240;SDS011;11289;52.524;13.694;2022-12-31T16:29:02;3.10;;;1.40;;
22240;SDS011;11289;52.524;13.694;2022-12-31T16:31:28;3.67;;;1.58;;
22240;SDS011;11289;52.524;13.694;2022-12-31T16:34:01;3.45;;;1.55;;
22240;SDS011;11289;52.524;13.694;2022-12-31T16:36:31;1.85;;;1.33;;
22240;SDS011;11289;52.524;13.694;2022-12-31T16:44:39;4.32;;;1.60;;
22240;SDS011;11289;52.524;13.694;2022-12-31T16:47:05;3.72;;;1.33;;
22240;SDS011;11289;52.524;13.694;2022-12-31T16:49:34;4.22;;;1.58;;
22240;SDS011;11289;52.524;13.694;2022-12-31T16:52:07;2.80;;;1.65;;
22240;SDS011;11289;52.524;13.694;2022-12-31T16:54:51;1.73;;;1.40;;
22240;SDS011;11289;52.524;13.694;2022-12-31T16:57:21;3.38;;;1.70;;
22240;SDS011;11289;52.524;13.694;2022-12-31T16:59:53;3.60;;;2.15;;
22240;SDS011;11289;52.524;13.694;2022-12-31T17:02:33;5.18;;;3.05;;
22240;SDS011;11289;52.524;13.694;2022-12-31T17:05:02;4.35;;;2.40;;
22240;SDS011;11289;52.524;13.694;2022-12-31T17:12:30;5.68;;;2.03;;
22240;SDS011;11289;52.524;13.694;2022-12-31T17:15:02;2.67;;;1.23;;
22240;SDS011;11289;52.524;13.694;2022-12-31T17:17:30;5.75;;;2.17;;
22240;SDS011;11289;52.524;13.694;2022-12-31T17:20:00;7.47;;;3.65;;
22240;SDS011;11289;52.524;13.694;2022-12-31T17:22:30;5.47;;;2.40;;
22240;SDS011;11289;52.524;13.694;2022-12-31T17:25:04;3.58;;;2.80;;
22240;SDS011;11289;52.524;13.694;2022-12-31T17:27:33;4.97;;;2.00;;
22240;SDS011;11289;52.524;13.694;2022-12-31T17:30:42;4.68;;;1.83;;
22240;SDS011;11289;52.524;13.694;2022-12-31T17:33:04;2.78;;;1.50;;
22240;SDS011;11289;52.524;13.694;2022-12-31T17:35:52;4.22;;;1.50;;
22240;SDS011;11289;52.524;13.694;2022-12-31T17:40:45;3.45;;;1.67;;
22240;SDS011;11289;52.524;13.694;2022-12-31T17:43:13;4.70;;;2.40;;
22240;SDS011;11289;52.524;13.694;2022-12-31T17:45:41;3.03;;;1.88;;
22240;SDS011;11289;52.524;13.694;2022-12-31T17:48:11;2.20;;;1.50;;
22240;SDS011;11289;52.524;13.694;2022-12-31T17:50:48;5.93;;;3.20;;
22240;SDS011;11289;52.524;13.694;2022-12-31T17:53:17;4.18;;;2.17;;
22240;SDS011;11289;52.524;13.694;2022-12-31T17:55:43;3.05;;;2.10;;
22240;SDS011;11289;52.524;13.694;2022-12-31T17:58:15;6.03;;;2.03;;
22240;SDS011;11289;52.524;13.694;2022-12-31T18:00:51;3.47;;;1.92;;
22240;SDS011;11289;52.524;13.694;2022-12-31T18:03:17;5.32;;;1.80;;
22240;SDS011;11289;52.524;13.694;2022-12-31T18:05:42;3.88;;;2.22;;
22240;SDS011;11289;52.524;13.694;2022-12-31T18:08:07;4.45;;;2.05;;
22240;SDS011;11289;52.524;13.694;2022-12-31T18:10:34;3.83;;;1.73;;
22240;SDS011;11289;52.524;13.694;2022-12-31T18:13:05;4.72;;;1.90;;
22240;SDS011;11289;52.524;13.694;2022-12-31T18:15:34;3.63;;;1.90;;
22240;SDS011;11289;52.524;13.694;2022-12-31T18:18:01;2.60;;;1.95;;
22240;SDS011;11289;52.524;13.694;2022-12-31T18:20:35;3.92;;;2.80;;
22240;SDS011;11289;52.524;13.694;2022-12-31T18:23:00;6.00;;;2.95;;
22240;SDS011;11289;52.524;13.694;2022-12-31T18:25:25;6.85;;;2.35;;
22240;SDS011;11289;52.524;13.694;2022-12-31T18:27:51;4.97;;;2.22;;
22240;SDS011;11289;52.524;13.694;2022-12-31T18:30:16;4.35;;;1.98;;
22240;SDS011;11289;52.524;13.694;2022-12-31T18:32:42;4.35;;;2.75;;
22240;SDS011;11289;52.524;13.694;2022-12-31T18:35:15;6.53;;;3.75;;
22240;SDS011;11289;52.524;13.694;2022-12-31T18:37:44;4.63;;;3.00;;
22240;SDS011;11289;52.524;13.694;2022-12-31T18:40:10;4.68;;;2.45;;
22240;SDS011;11289;52.524;13.694;2022-12-31T18:42:38;5.05;;;2.10;;
22240;SDS011;11289;52.524;13.694;2022-12-31T18:45:15;4.30;;;2.17;;
22240;SDS011;11289;52.524;13.694;2022-12-31T18:47:42;5.32;;;3.33;;
22240;SDS011;11289;52.524;13.694;2022-12-31T18:50:11;7.15;;;3.67;;
22240;SDS011;11289;52.524;13.694;2022-12-31T18:52:39;12.85;;;9.27;;
22240;SDS011;11289;52.524;13.694;2022-12-31T18:55:21;13.48;;;10.00;;
22240;SDS011;11289;52.524;13.694;2022-12-31T18:57:52;10.68;;;6.75;;
22240;SDS011;11289;52.524;13.694;2022-12-31T19:00:18;7.50;;;3.88;;
22240;SDS011;11289;52.524;13.694;2022-12-31T19:02:43;7.38;;;5.32;;
22240;SDS011;11289;52.524;13.694;2022-12-31T19:05:28;10.77;;;7.60;;
22240;SDS011;11289;52.524;13.694;2022-12-31T19:07:55;5.10;;;3.17;;
22240;SDS011;11289;52.524;13.694;2022-12-31T19:10:21;8.65;;;3.90;;
22240;SDS011;11289;52.524;13.694;2022-12-31T19:12:47;6.80;;;2.67;;
22240;SDS011;11289;52.524;13.694;2022-12-31T19:15:31;7.55;;;3.97;;
22240;SDS011;11289;52.524;13.694;2022-12-31T19:18:02;13.70;;;11.07;;
22240;SDS011;11289;52.524;13.694;2022-12-31T19:20:29;7.07;;;3.88;;
22240;SDS011;11289;52.524;13.694;2022-12-31T19:22:55;4.32;;;2.75;;
22240;SDS011;11289;52.524;13.694;2022-12-31T19:27:51;5.00;;;2.70;;
22240;SDS011;11289;52.524;13.694;2022-12-31T19:32:47;7.07;;;3.42;;
22240;SDS011;11289;52.524;13.694;2022-12-31T19:35:13;5.18;;;3.53;;
22240;SDS011;11289;52.524;13.694;2022-12-31T19:37:39;6.63;;;3.50;;
22240;SDS011;11289;52.524;13.694;2022-12-31T19:40:06;4.18;;;3.25;;
22240;SDS011;11289;52.524;13.694;2022-12-31T19:42:36;7.30;;;3.47;;
22240;SDS011;11289;52.524;13.694;2022-12-31T19:45:02;10.40;;;4.25;;
22240;SDS011;11289;52.524;13.694;2022-12-31T19:47:28;10.20;;;6.10;;
22240;SDS011;11289;52.524;13.694;2022-12-31T19:49:53;6.82;;;4.82;;
22240;SDS011;11289;52.524;13.694;2022-12-31T19:52:18;6.80;;;3.83;;
22240;SDS011;11289;52.524;13.694;2022-12-31T19:54:44;7.32;;;3.45;;
22240;SDS011;11289;52.524;13.694;2022-12-31T19:57:09;5.68;;;3.28;;
22240;SDS011;11289;52.524;13.694;2022-12-31T19:59:35;9.13;;;5.15;;
22240;SDS011;11289;52.524;13.694;2022-12-31T20:02:00;6.45;;;4.13;;
22240;SDS011;11289;52.524;13.694;2022-12-31T20:04:26;5.93;;;4.80;;
22240;SDS011;11289;52.524;13.694;2022-12-31T20:06:52;7.03;;;4.43;;
22240;SDS011;11289;52.524;13.694;2022-12-31T20:09:17;11.18;;;8.95;;
22240;SDS011;11289;52.524;13.694;2022-12-31T20:11:45;5.85;;;5.15;;
22240;SDS011;11289;52.524;13.694;2022-12-31T20:14:10;7.72;;;3.83;;
22240;SDS011;11289;52.524;13.694;2022-12-31T20:16:36;6.53;;;3.80;;
22240;SDS011;11289;52.524;13.694;2022-12-31T20:19:01;11.52;;;8.32;;
22240;SDS011;11289;52.524;13.694;2022-12-31T20:21:27;7.38;;;4.72;;
22240;SDS011;11289;52.524;13.694;2022-12-31T20:23:53;6.53;;;3.83;;
22240;SDS011;11289;52.524;13.694;2022-12-31T20:26:20;4.85;;;3.78;;
22240;SDS011;11289;52.524;13.694;2022-12-31T20:28:46;6.60;;;4.10;;